Time;durP1;ratioP1;P1;durP2;ratioP2;P2;SDS_P1;SDS_P2;PMS_P1;PMS_P2;Temp;Humidity;BMP_temperature;BMP_pressure;BME280_temperature;BME280_humidity;BME280_pressure;Samples;Min_cycle;Max_cycle;Signal;HPM_P1;HPM_P2
2024/01/07 00:00:20;;;;;;;19.38;14.25;;;;;;;;;;5054019;28;20071;-58
2024/01/07 00:02:46;;;;;;;20.23;14.63;;;;;;;;;;5052864;28;20086;-57
2024/01/07 00:05:12;;;;;;;16.30;13.10;;;;;;;;;;5053131;28;20029;-57
2024/01/07 00:07:38;;;;;;;20.15;13.93;;;;;;;;;;5052496;28;20455;-60
2024/01/07 00:10:05;;;;;;;20.40;14.73;;;;;;;;;;5053167;28;20033;-57
2024/01/07 00:12:31;;;;;;;17.20;14.35;;;;;;;;;;5053132;28;20053;-59
2024/01/07 00:14:57;;;;;;;20.73;14.20;;;;;;;;;;5053148;28;20021;-57
2024/01/07 00:17:23;;;;;;;19.33;14.32;;;;;;;;;;5053459;28;20091;-57
2024/01/07 00:19:49;;;;;;;21.58;15.95;;;;;;;;;;5053124;28;20052;-58
2024/01/07 00:22:15;;;;;;;22.02;15.32;;;;;;;;;;5053620;28;20045;-57
2024/01/07 00:24:41;;;;;;;22.60;14.90;;;;;;;;;;5053499;28;20036;-58
2024/01/07 00:27:08;;;;;;;17.85;13.95;;;;;;;;;;5053106;28;20033;-58
2024/01/07 00:29:35;;;;;;;22.83;14.23;;;;;;;;;;5052907;28;20033;-58
2024/01/07 00:32:01;;;;;;;19.63;14.93;;;;;;;;;;5052887;28;20120;-57
2024/01/07 00:34:27;;;;;;;18.13;12.27;;;;;;;;;;5052733;28;20118;-58
2024/01/07 00:36:53;;;;;;;16.10;12.25;;;;;;;;;;5052954;28;20025;-58
2024/01/07 00:39:19;;;;;;;21.13;13.57;;;;;;;;;;5055695;28;20075;-57
2024/01/07 00:41:45;;;;;;;16.77;12.55;;;;;;;;;;5056497;28;20025;-57
2024/01/07 00:44:11;;;;;;;15.65;12.75;;;;;;;;;;5056079;28;20032;-58
2024/01/07 00:46:36;;;;;;;19.98;13.48;;;;;;;;;;5056991;28;20111;-58
2024/01/07 00:49:02;;;;;;;17.70;13.48;;;;;;;;;;5056627;28;20072;-59
2024/01/07 00:51:28;;;;;;;15.73;12.27;;;;;;;;;;5057075;28;20039;-59
2024/01/07 00:53:54;;;;;;;17.20;14.80;;;;;;;;;;5056308;28;20025;-58
2024/01/07 00:56:20;;;;;;;16.88;12.75;;;;;;;;;;5056156;28;20125;-57
2024/01/07 00:58:46;;;;;;;18.30;12.75;;;;;;;;;;5056167;28;20454;-57
2024/01/07 01:01:12;;;;;;;18.45;13.68;;;;;;;;;;5056164;28;20035;-57
2024/01/07 01:03:38;;;;;;;17.45;12.82;;;;;;;;;;5055741;28;20111;-58
2024/01/07 01:06:04;;;;;;;16.00;13.10;;;;;;;;;;5055822;28;20058;-58
2024/01/07 01:08:30;;;;;;;20.02;14.55;;;;;;;;;;5056887;28;20086;-59
2024/01/07 01:10:56;;;;;;;20.13;14.25;;;;;;;;;;5056563;28;20025;-57
2024/01/07 01:13:22;;;;;;;20.63;13.05;;;;;;;;;;5055694;28;20455;-58
2024/01/07 01:15:48;;;;;;;18.92;13.73;;;;;;;;;;5055833;28;20025;-57
2024/01/07 01:18:14;;;;;;;19.90;14.48;;;;;;;;;;5056332;28;20166;-58
2024/01/07 01:20:40;;;;;;;22.17;13.90;;;;;;;;;;5056233;28;20025;-58
2024/01/07 01:23:06;;;;;;;19.60;14.15;;;;;;;;;;5055626;28;20065;-59
2024/01/07 01:25:32;;;;;;;20.08;13.85;;;;;;;;;;5056454;28;20035;-58
2024/01/07 01:27:58;;;;;;;19.05;14.18;;;;;;;;;;5055631;28;20079;-59
2024/01/07 01:30:24;;;;;;;16.92;13.73;;;;;;;;;;5055558;28;20108;-58
2024/01/07 01:32:50;;;;;;;19.63;13.10;;;;;;;;;;5055619;28;20067;-58
2024/01/07 01:35:16;;;;;;;17.02;14.43;;;;;;;;;;5056099;28;20021;-56
2024/01/07 01:37:42;;;;;;;20.55;13.88;;;;;;;;;;5055667;28;20056;-56
2024/01/07 01:40:08;;;;;;;15.77;13.63;;;;;;;;;;5055497;28;20451;-56
2024/01/07 01:42:34;;;;;;;17.15;13.00;;;;;;;;;;5055359;28;20037;-56
2024/01/07 01:45:01;;;;;;;17.02;12.82;;;;;;;;;;5055946;28;20447;-56
2024/01/07 01:47:28;;;;;;;16.50;13.20;;;;;;;;;;5056210;28;20040;-56
2024/01/07 01:49:54;;;;;;;19.27;13.43;;;;;;;;;;5054410;28;20029;-56
2024/01/07 01:52:19;;;;;;;20.30;14.48;;;;;;;;;;5055482;28;20371;-57
2024/01/07 01:54:46;;;;;;;22.30;13.45;;;;;;;;;;5055248;28;20040;-56
2024/01/07 01:57:16;;;;;;;19.92;14.57;;;;;;;;;;5056043;28;20054;-58
2024/01/07 01:59:43;;;;;;;19.23;14.18;;;;;;;;;;5055765;28;20375;-56
2024/01/07 02:02:09;;;;;;;19.00;15.00;;;;;;;;;;5055078;28;20055;-55
2024/01/07 02:04:35;;;;;;;18.83;14.25;;;;;;;;;;5054870;28;20052;-56
2024/01/07 02:07:01;;;;;;;21.35;15.20;;;;;;;;;;5054719;28;20028;-53
2024/01/07 02:09:27;;;;;;;20.90;14.52;;;;;;;;;;5055523;28;20029;-57
2024/01/07 02:12:05;;;;;;;22.33;16.88;;;;;;;;;;5054950;28;20032;-57
2024/01/07 02:14:31;;;;;;;23.60;15.93;;;;;;;;;;5054878;28;20037;-57
2024/01/07 02:16:57;;;;;;;22.65;15.15;;;;;;;;;;5054775;28;20091;-57
2024/01/07 02:19:23;;;;;;;20.52;15.98;;;;;;;;;;5054792;28;20464;-56
2024/01/07 02:21:51;;;;;;;21.27;15.20;;;;;;;;;;5054907;28;20021;-57
2024/01/07 02:24:17;;;;;;;20.23;16.02;;;;;;;;;;5054866;28;20374;-57
2024/01/07 02:26:43;;;;;;;22.00;16.83;;;;;;;;;;5054556;28;20069;-57
2024/01/07 02:29:09;;;;;;;23.15;15.52;;;;;;;;;;5055414;28;20021;-57
2024/01/07 02:31:35;;;;;;;26.02;16.90;;;;;;;;;;5054566;28;20469;-56
2024/01/07 02:34:01;;;;;;;20.75;15.48;;;;;;;;;;5054462;28;20051;-57
2024/01/07 02:36:27;;;;;;;23.77;16.33;;;;;;;;;;5054720;28;20024;-57
2024/01/07 02:38:53;;;;;;;23.48;16.65;;;;;;;;;;5054963;28;20021;-57
2024/01/07 02:41:19;;;;;;;23.23;15.63;;;;;;;;;;5054170;28;20032;-57
2024/01/07 02:43:46;;;;;;;23.80;16.27;;;;;;;;;;5053942;28;20458;-55
2024/01/07 02:46:12;;;;;;;18.75;14.90;;;;;;;;;;5054747;28;20029;-56
2024/01/07 02:48:38;;;;;;;23.20;14.57;;;;;;;;;;5054572;28;20106;-56
2024/01/07 02:51:07;;;;;;;15.52;11.73;;;;;;;;;;5054173;28;20378;-56
2024/01/07 02:53:33;;;;;;;22.17;16.88;;;;;;;;;;5054176;28;20427;-57
2024/01/07 02:55:59;;;;;;;23.83;17.00;;;;;;;;;;5054346;28;20087;-56
2024/01/07 02:58:25;;;;;;;20.67;14.95;;;;;;;;;;5053325;28;20079;-57
2024/01/07 03:00:51;;;;;;;23.08;16.98;;;;;;;;;;5053525;28;20463;-55
2024/01/07 03:03:17;;;;;;;20.60;15.15;;;;;;;;;;5053158;28;20033;-57
2024/01/07 03:05:43;;;;;;;20.63;15.77;;;;;;;;;;5053177;28;20356;-57
2024/01/07 03:08:08;;;;;;;24.45;16.88;;;;;;;;;;5053982;28;20035;-58
2024/01/07 03:10:34;;;;;;;21.05;16.38;;;;;;;;;;5053101;28;20029;-57
2024/01/07 03:13:01;;;;;;;26.02;18.67;;;;;;;;;;5053289;28;20025;-57
2024/01/07 03:15:27;;;;;;;18.23;15.18;;;;;;;;;;5052724;28;20478;-57
2024/01/07 03:17:53;;;;;;;20.63;15.88;;;;;;;;;;5053515;28;20068;-55
2024/01/07 03:20:19;;;;;;;19.90;15.20;;;;;;;;;;5053180;28;20021;-57
2024/01/07 03:22:45;;;;;;;19.50;14.48;;;;;;;;;;5053362;28;20415;-57
2024/01/07 03:25:11;;;;;;;24.42;16.75;;;;;;;;;;5052922;28;20068;-55
2024/01/07 03:27:37;;;;;;;15.25;12.82;;;;;;;;;;5052949;28;20021;-56
2024/01/07 03:30:03;;;;;;;22.15;16.50;;;;;;;;;;5052525;28;20078;-56
2024/01/07 03:32:29;;;;;;;17.50;15.65;;;;;;;;;;5052794;28;20029;-56
2024/01/07 03:34:54;;;;;;;23.90;18.65;;;;;;;;;;5053060;28;20116;-57
2024/01/07 03:37:20;;;;;;;17.63;13.32;;;;;;;;;;5053255;28;20021;-57
2024/01/07 03:39:47;;;;;;;19.35;14.30;;;;;;;;;;5052663;28;20455;-57
2024/01/07 03:42:13;;;;;;;22.88;14.13;;;;;;;;;;5052704;28;20105;-57
2024/01/07 03:44:39;;;;;;;20.85;13.75;;;;;;;;;;5052573;28;20383;-57
2024/01/07 03:47:06;;;;;;;18.85;15.50;;;;;;;;;;5052649;28;20082;-56
2024/01/07 03:49:32;;;;;;;24.23;13.98;;;;;;;;;;5052640;28;20068;-56
2024/01/07 03:51:58;;;;;;;18.80;14.63;;;;;;;;;;5052585;28;20025;-57
2024/01/07 03:54:24;;;;;;;19.40;14.98;;;;;;;;;;5053033;28;20455;-55
2024/01/07 03:56:50;;;;;;;20.17;14.30;;;;;;;;;;5017337;28;1014312;-57
2024/01/07 03:59:16;;;;;;;18.83;14.20;;;;;;;;;;5053403;28;20356;-56
2024/01/07 04:01:42;;;;;;;18.67;14.98;;;;;;;;;;5053739;28;20029;-57
2024/01/07 04:04:08;;;;;;;17.63;14.98;;;;;;;;;;5053113;28;20090;-57
2024/01/07 04:06:34;;;;;;;23.27;15.23;;;;;;;;;;5054013;28;20112;-57
2024/01/07 04:09:00;;;;;;;23.42;15.23;;;;;;;;;;5053282;28;20029;-56
2024/01/07 04:11:26;;;;;;;19.25;14.32;;;;;;;;;;5053211;28;20032;-57
2024/01/07 04:13:51;;;;;;;17.95;13.77;;;;;;;;;;5056295;28;20110;-56
2024/01/07 04:16:18;;;;;;;19.50;14.65;;;;;;;;;;5057305;28;20049;-56
2024/01/07 04:18:44;;;;;;;21.13;13.82;;;;;;;;;;5057850;28;20028;-56
2024/01/07 04:21:10;;;;;;;19.15;14.02;;;;;;;;;;5057012;28;20021;-55
2024/01/07 04:23:36;;;;;;;18.85;13.88;;;;;;;;;;5056512;28;20098;-54
2024/01/07 04:26:02;;;;;;;20.35;15.55;;;;;;;;;;5056955;28;20108;-55
2024/01/07 04:28:28;;;;;;;18.15;14.93;;;;;;;;;;5057183;28;20418;-56
2024/01/07 04:30:54;;;;;;;15.77;13.40;;;;;;;;;;5057396;28;20350;-57
2024/01/07 04:33:20;;;;;;;16.92;14.25;;;;;;;;;;5056882;28;20116;-55
2024/01/07 04:35:46;;;;;;;16.25;14.38;;;;;;;;;;5056781;28;20029;-57
2024/01/07 04:38:12;;;;;;;16.60;13.23;;;;;;;;;;5057628;28;20103;-56
2024/01/07 04:40:38;;;;;;;16.02;12.48;;;;;;;;;;5056868;28;20029;-55
2024/01/07 04:43:04;;;;;;;16.83;13.13;;;;;;;;;;5056572;28;20063;-54
2024/01/07 04:45:30;;;;;;;16.35;12.93;;;;;;;;;;5057091;28;20118;-57
2024/01/07 04:47:56;;;;;;;18.48;14.63;;;;;;;;;;5056571;28;20463;-57
2024/01/07 04:50:22;;;;;;;14.82;12.07;;;;;;;;;;5056456;28;20029;-57
2024/01/07 04:52:48;;;;;;;16.83;12.95;;;;;;;;;;5057249;28;20029;-57
2024/01/07 04:55:14;;;;;;;17.88;14.48;;;;;;;;;;5056203;28;20032;-54
2024/01/07 04:57:40;;;;;;;14.25;12.52;;;;;;;;;;5056723;28;20025;-57
2024/01/07 05:00:06;;;;;;;16.05;13.30;;;;;;;;;;5056246;28;20017;-57
2024/01/07 05:02:32;;;;;;;16.13;12.80;;;;;;;;;;5056279;28;20021;-57
2024/01/07 05:04:58;;;;;;;17.13;13.52;;;;;;;;;;5056075;28;20367;-56
2024/01/07 05:07:24;;;;;;;16.08;12.88;;;;;;;;;;5056964;28;20029;-55
2024/01/07 05:09:50;;;;;;;17.35;13.80;;;;;;;;;;5056081;28;20021;-57
2024/01/07 05:12:16;;;;;;;20.48;13.18;;;;;;;;;;5056358;28;20021;-56
2024/01/07 05:14:42;;;;;;;21.58;14.00;;;;;;;;;;5055958;28;20033;-56
2024/01/07 05:17:08;;;;;;;17.00;14.05;;;;;;;;;;5055944;28;20112;-57
2024/01/07 05:19:34;;;;;;;17.38;14.27;;;;;;;;;;5055605;28;20029;-56
2024/01/07 05:22:01;;;;;;;22.98;14.80;;;;;;;;;;5056179;28;20029;-55
2024/01/07 05:24:27;;;;;;;16.15;13.43;;;;;;;;;;5054729;28;20478;-56
2024/01/07 05:26:53;;;;;;;17.90;14.00;;;;;;;;;;5055774;28;20029;-57
2024/01/07 05:29:19;;;;;;;20.55;12.60;;;;;;;;;;5055604;28;20120;-57
2024/01/07 05:31:45;;;;;;;14.43;12.43;;;;;;;;;;5056185;28;20063;-56
2024/01/07 05:34:11;;;;;;;18.65;13.30;;;;;;;;;;5056494;28;20387;-56
2024/01/07 05:36:37;;;;;;;17.90;13.38;;;;;;;;;;5056081;28;20125;-57
2024/01/07 05:39:04;;;;;;;15.82;13.27;;;;;;;;;;5055952;28;20025;-57
2024/01/07 05:41:30;;;;;;;18.23;12.15;;;;;;;;;;5055779;28;20028;-57
2024/01/07 05:43:56;;;;;;;18.67;13.43;;;;;;;;;;5055384;28;20115;-57
2024/01/07 05:46:21;;;;;;;19.40;13.45;;;;;;;;;;5055427;28;20060;-57
2024/01/07 05:48:49;;;;;;;19.05;12.80;;;;;;;;;;5055937;28;20067;-56
2024/01/07 05:51:15;;;;;;;16.33;12.68;;;;;;;;;;5056118;28;20021;-57
2024/01/07 05:53:41;;;;;;;15.70;11.73;;;;;;;;;;5055803;28;20033;-55
2024/01/07 05:56:07;;;;;;;16.13;12.68;;;;;;;;;;5056101;28;20132;-56
2024/01/07 05:58:33;;;;;;;16.05;12.27;;;;;;;;;;5055110;28;20033;-55
2024/01/07 06:01:00;;;;;;;15.98;13.30;;;;;;;;;;5055701;28;20370;-57
2024/01/07 06:03:26;;;;;;;14.20;12.10;;;;;;;;;;5055393;28;20036;-57
2024/01/07 06:05:52;;;;;;;18.75;12.35;;;;;;;;;;5055037;28;20025;-54
2024/01/07 06:08:18;;;;;;;18.30;13.15;;;;;;;;;;5055423;28;20043;-57
2024/01/07 06:10:44;;;;;;;13.65;9.98;;;;;;;;;;5054734;28;20489;-58
2024/01/07 06:13:10;;;;;;;17.33;12.60;;;;;;;;;;5054941;28;20033;-57
2024/01/07 06:15:36;;;;;;;14.00;11.75;;;;;;;;;;5054598;28;20029;-57
2024/01/07 06:18:02;;;;;;;15.20;11.55;;;;;;;;;;5055463;28;20017;-57
2024/01/07 06:20:28;;;;;;;15.27;12.07;;;;;;;;;;5054869;28;20021;-56
2024/01/07 06:22:54;;;;;;;17.38;12.23;;;;;;;;;;5054725;28;20052;-57
2024/01/07 06:25:26;;;;;;;18.25;12.77;;;;;;;;;;5054779;28;20048;-55
2024/01/07 06:27:54;;;;;;;18.35;15.05;;;;;;;;;;5055325;28;20029;-54
2024/01/07 06:30:20;;;;;;;15.63;13.45;;;;;;;;;;5054934;28;20017;-56
2024/01/07 06:32:47;;;;;;;15.10;13.13;;;;;;;;;;5054660;28;20110;-56
2024/01/07 06:35:13;;;;;;;17.63;13.77;;;;;;;;;;5054897;28;20033;-57
2024/01/07 06:37:39;;;;;;;17.25;12.40;;;;;;;;;;5054827;28;20027;-56
2024/01/07 06:40:06;;;;;;;15.40;12.98;;;;;;;;;;5054500;28;20481;-56
2024/01/07 06:42:31;;;;;;;16.05;12.60;;;;;;;;;;5054496;28;20108;-57
2024/01/07 06:44:57;;;;;;;18.27;13.75;;;;;;;;;;5054932;28;20096;-57
2024/01/07 06:47:23;;;;;;;17.55;13.20;;;;;;;;;;5054045;28;20091;-57
2024/01/07 06:49:49;;;;;;;18.80;14.20;;;;;;;;;;5054021;28;20079;-56
2024/01/07 06:52:15;;;;;;;18.75;14.30;;;;;;;;;;5054842;28;20021;-56
2024/01/07 06:54:41;;;;;;;20.15;14.10;;;;;;;;;;5054511;28;20032;-56
2024/01/07 06:57:07;;;;;;;16.63;13.88;;;;;;;;;;5054723;28;20041;-57
2024/01/07 06:59:33;;;;;;;16.67;12.85;;;;;;;;;;5054416;28;20037;-55
2024/01/07 07:01:59;;;;;;;16.88;12.60;;;;;;;;;;5054424;28;20021;-57
2024/01/07 07:04:25;;;;;;;15.77;12.20;;;;;;;;;;5053629;28;20110;-57
2024/01/07 07:06:51;;;;;;;15.68;12.98;;;;;;;;;;5054085;28;20063;-55
2024/01/07 07:09:17;;;;;;;19.50;14.68;;;;;;;;;;5054059;28;20459;-57
2024/01/07 07:11:43;;;;;;;21.58;12.30;;;;;;;;;;5053936;28;20040;-56
2024/01/07 07:14:09;;;;;;;17.92;14.57;;;;;;;;;;5053968;28;20025;-55
2024/01/07 07:16:35;;;;;;;14.95;11.98;;;;;;;;;;5053828;28;20020;-56
2024/01/07 07:19:01;;;;;;;16.10;12.93;;;;;;;;;;5054708;28;20021;-57
2024/01/07 07:21:27;;;;;;;14.02;12.52;;;;;;;;;;5053640;28;20485;-56
2024/01/07 07:23:53;;;;;;;15.82;13.70;;;;;;;;;;5053707;28;20112;-57
2024/01/07 07:26:19;;;;;;;18.42;13.20;;;;;;;;;;5054536;28;20040;-57
2024/01/07 07:28:45;;;;;;;15.43;12.52;;;;;;;;;;5054115;28;20021;-56
2024/01/07 07:31:14;;;;;;;15.60;12.55;;;;;;;;;;5053722;28;20031;-56
2024/01/07 07:33:40;;;;;;;13.95;12.40;;;;;;;;;;5053701;28;20417;-57
2024/01/07 07:36:06;;;;;;;16.20;12.52;;;;;;;;;;5054168;28;20046;-57
2024/01/07 07:38:32;;;;;;;18.23;13.13;;;;;;;;;;5053977;28;20021;-56
2024/01/07 07:40:58;;;;;;;15.20;11.77;;;;;;;;;;5053265;28;20075;-57
2024/01/07 07:43:25;;;;;;;13.93;12.35;;;;;;;;;;5053516;28;20036;-55
2024/01/07 07:45:51;;;;;;;16.25;13.30;;;;;;;;;;5053914;28;20037;-56
2024/01/07 07:48:17;;;;;;;15.85;12.25;;;;;;;;;;5055468;28;20029;-56
2024/01/07 07:50:43;;;;;;;18.38;12.48;;;;;;;;;;5057704;28;20060;-57
2024/01/07 07:53:09;;;;;;;14.30;12.80;;;;;;;;;;5058424;28;20372;-57
2024/01/07 07:55:35;;;;;;;15.00;12.52;;;;;;;;;;5058073;28;20051;-56
2024/01/07 07:58:01;;;;;;;17.30;12.77;;;;;;;;;;5057538;28;20025;-57
2024/01/07 08:00:27;;;;;;;14.18;11.90;;;;;;;;;;5057200;28;20090;-56
2024/01/07 08:02:52;;;;;;;13.80;11.20;;;;;;;;;;5057909;28;20036;-57
2024/01/07 08:05:18;;;;;;;13.38;11.10;;;;;;;;;;5057847;28;20479;-57
2024/01/07 08:07:44;;;;;;;15.23;11.75;;;;;;;;;;5057974;28;20021;-55
2024/01/07 08:10:10;;;;;;;16.05;12.82;;;;;;;;;;5057278;28;20021;-54
2024/01/07 08:12:36;;;;;;;17.65;12.43;;;;;;;;;;5057799;28;20017;-57
2024/01/07 08:15:02;;;;;;;15.68;12.05;;;;;;;;;;5057305;28;20374;-55
2024/01/07 08:17:28;;;;;;;12.50;10.45;;;;;;;;;;5057212;28;20029;-57
2024/01/07 08:19:54;;;;;;;14.45;10.48;;;;;;;;;;5057696;28;20029;-54
2024/01/07 08:22:20;;;;;;;16.45;12.65;;;;;;;;;;5057390;28;20443;-54
2024/01/07 08:24:46;;;;;;;12.88;10.57;;;;;;;;;;5057006;28;20033;-55
2024/01/07 08:27:12;;;;;;;14.32;10.88;;;;;;;;;;5057543;28;20529;-55
2024/01/07 08:29:38;;;;;;;13.85;11.15;;;;;;;;;;5056691;28;20056;-52
2024/01/07 08:32:04;;;;;;;12.18;9.50;;;;;;;;;;5056932;28;20064;-56
2024/01/07 08:34:30;;;;;;;12.98;11.55;;;;;;;;;;5056959;28;20481;-54
2024/01/07 08:36:56;;;;;;;18.95;13.05;;;;;;;;;;5057392;28;20025;-55
2024/01/07 08:39:22;;;;;;;16.40;11.70;;;;;;;;;;5057415;28;20155;-56
2024/01/07 08:41:48;;;;;;;12.68;10.85;;;;;;;;;;5057314;28;20025;-58
2024/01/07 08:44:14;;;;;;;13.68;10.40;;;;;;;;;;5056314;28;20382;-58
2024/01/07 08:46:40;;;;;;;14.15;10.88;;;;;;;;;;5056727;28;20033;-58
2024/01/07 08:49:05;;;;;;;14.10;8.63;;;;;;;;;;5057411;28;20438;-57
2024/01/07 08:51:31;;;;;;;14.90;10.52;;;;;;;;;;5056612;28;20033;-58
2024/01/07 08:53:58;;;;;;;13.27;10.50;;;;;;;;;;5057028;28;20059;-56
2024/01/07 08:56:25;;;;;;;17.58;11.02;;;;;;;;;;5056321;28;20518;-56
2024/01/07 08:58:52;;;;;;;13.73;12.25;;;;;;;;;;5056069;28;20441;-58
2024/01/07 09:01:18;;;;;;;11.82;9.80;;;;;;;;;;5056355;28;20036;-57
2024/01/07 09:03:44;;;;;;;15.00;9.95;;;;;;;;;;5056572;28;20095;-58
2024/01/07 09:06:10;;;;;;;14.75;10.07;;;;;;;;;;5057021;28;20029;-56
2024/01/07 09:08:36;;;;;;;12.07;10.45;;;;;;;;;;5057108;28;20033;-56
2024/01/07 09:11:06;;;;;;;11.30;9.23;;;;;;;;;;5056195;28;20025;-57
2024/01/07 09:13:32;;;;;;;11.00;9.20;;;;;;;;;;5056708;28;20032;-56
2024/01/07 09:15:58;;;;;;;14.77;11.32;;;;;;;;;;5056108;28;20021;-55
2024/01/07 09:18:24;;;;;;;12.50;9.13;;;;;;;;;;5056630;28;20355;-58
2024/01/07 09:20:50;;;;;;;12.07;8.50;;;;;;;;;;5056002;28;20028;-58
2024/01/07 09:23:16;;;;;;;13.48;7.78;;;;;;;;;;5055639;28;20037;-56
2024/01/07 09:25:42;;;;;;;11.18;8.52;;;;;;;;;;5055962;28;20021;-58
2024/01/07 09:28:07;;;;;;;10.38;7.55;;;;;;;;;;5056016;28;20020;-57
2024/01/07 09:30:33;;;;;;;9.60;5.20;;;;;;;;;;5055829;28;20033;-57
2024/01/07 09:32:59;;;;;;;5.57;4.78;;;;;;;;;;5055966;28;20025;-58
2024/01/07 09:35:25;;;;;;;9.63;7.25;;;;;;;;;;5055567;28;20099;-55
2024/01/07 09:37:51;;;;;;;10.05;6.85;;;;;;;;;;5055722;28;20013;-56
2024/01/07 09:40:19;;;;;;;10.82;7.25;;;;;;;;;;5055717;28;20029;-56
2024/01/07 09:42:45;;;;;;;8.55;6.30;;;;;;;;;;5056107;28;20029;-54
2024/01/07 09:45:12;;;;;;;11.77;7.85;;;;;;;;;;5056341;28;20025;-57
2024/01/07 09:47:40;;;;;;;9.07;6.78;;;;;;;;;;5055837;28;20021;-55
2024/01/07 09:50:06;;;;;;;7.65;6.28;;;;;;;;;;5055942;28;20025;-55
2024/01/07 09:52:33;;;;;;;6.75;5.53;;;;;;;;;;5055547;28;20032;-56
2024/01/07 09:55:02;;;;;;;6.03;4.95;;;;;;;;;;5055483;28;20104;-56
2024/01/07 09:57:28;;;;;;;9.70;6.35;;;;;;;;;;5055311;28;20041;-55
2024/01/07 09:59:54;;;;;;;8.68;6.32;;;;;;;;;;5055067;28;20031;-54
2024/01/07 10:02:22;;;;;;;8.15;6.22;;;;;;;;;;5055607;28;20025;-58
2024/01/07 10:04:49;;;;;;;10.45;6.82;;;;;;;;;;5054862;28;20032;-57
2024/01/07 10:07:15;;;;;;;7.88;6.47;;;;;;;;;;5054979;28;20112;-58
2024/01/07 10:09:44;;;;;;;6.95;5.15;;;;;;;;;;5055029;28;20446;-53
2024/01/07 10:12:12;;;;;;;7.47;6.38;;;;;;;;;;5054218;28;20029;-55
2024/01/07 10:14:40;;;;;;;6.65;6.00;;;;;;;;;;5054389;28;20497;-55
2024/01/07 10:17:15;;;;;;;10.68;6.25;;;;;;;;;;5054883;28;20052;-57
2024/01/07 10:19:43;;;;;;;9.15;6.32;;;;;;;;;;5055445;28;20407;-57
2024/01/07 10:22:10;;;;;;;6.10;3.65;;;;;;;;;;5055169;28;20028;-54
2024/01/07 10:24:39;;;;;;;6.78;5.38;;;;;;;;;;5054839;28;20032;-58
2024/01/07 10:27:06;;;;;;;7.18;5.72;;;;;;;;;;5054751;28;20029;-56
2024/01/07 10:29:32;;;;;;;8.02;6.03;;;;;;;;;;5055059;28;20029;-55
2024/01/07 10:31:58;;;;;;;8.07;6.07;;;;;;;;;;5054723;28;20036;-56
2024/01/07 10:34:24;;;;;;;8.60;6.10;;;;;;;;;;5054849;28;20168;-55
2024/01/07 10:36:56;;;;;;;7.53;5.60;;;;;;;;;;5055350;28;20028;-55
2024/01/07 10:39:22;;;;;;;9.82;5.65;;;;;;;;;;5054125;28;20467;-52
2024/01/07 10:41:48;;;;;;;6.70;5.28;;;;;;;;;;5054760;28;20451;-56
2024/01/07 10:44:14;;;;;;;10.50;5.30;;;;;;;;;;5055000;28;20418;-55
2024/01/07 10:46:40;;;;;;;9.80;6.35;;;;;;;;;;5054703;28;20021;-54
2024/01/07 10:49:16;;;;;;;7.63;4.97;;;;;;;;;;5054657;28;20076;-52
2024/01/07 10:51:43;;;;;;;9.23;7.05;;;;;;;;;;5054124;28;20494;-53
2024/01/07 10:54:11;;;;;;;8.75;6.85;;;;;;;;;;5053968;28;20485;-54
2024/01/07 10:56:45;;;;;;;7.68;6.85;;;;;;;;;;5054523;28;20045;-54
2024/01/07 10:59:11;;;;;;;7.88;5.97;;;;;;;;;;5054268;28;20035;-54
2024/01/07 11:01:39;;;;;;;10.68;8.25;;;;;;;;;;5054034;28;20025;-54
2024/01/07 11:04:07;;;;;;;8.60;6.03;;;;;;;;;;5053825;28;20040;-55
2024/01/07 11:06:46;;;;;;;9.65;6.75;;;;;;;;;;5053387;28;20025;-52
2024/01/07 11:09:17;;;;;;;11.45;7.90;;;;;;;;;;5054058;28;20082;-54
2024/01/07 11:11:43;;;;;;;;;;;;;;;;;;5053984;28;20026;-52
2024/01/07 11:14:34;;;;;;;9.98;8.77;;;;;;;;;;5053895;28;19965;-56
2024/01/07 11:17:00;;;;;;;;;;;;;;;;;;5054734;28;20120;-55
2024/01/07 11:19:26;;;;;;;6.32;4.68;;;;;;;;;;5054553;28;19959;-56
2024/01/07 11:21:52;;;;;;;9.70;7.77;;;;;;;;;;5053568;28;20029;-55
2024/01/07 11:24:38;;;;;;;11.70;7.38;;;;;;;;;;5053203;28;20031;-54
2024/01/07 11:27:04;;;;;;;8.25;6.75;;;;;;;;;;5054300;28;20036;-56
2024/01/07 11:29:32;;;;;;;10.38;7.60;;;;;;;;;;5053761;28;20033;-54
2024/01/07 11:31:58;;;;;;;10.32;6.30;;;;;;;;;;5053652;28;20025;-56
2024/01/07 11:34:43;;;;;;;7.18;6.28;;;;;;;;;;5053918;28;20029;-54
2024/01/07 11:37:13;;;;;;;8.38;6.57;;;;;;;;;;5053148;28;20506;-56
2024/01/07 11:39:39;;;;;;;9.70;7.70;;;;;;;;;;5053650;28;20021;-54
2024/01/07 11:42:05;;;;;;;7.65;6.18;;;;;;;;;;5054182;28;20108;-56
2024/01/07 11:44:33;;;;;;;6.85;5.38;;;;;;;;;;5054006;28;20094;-57
2024/01/07 11:46:59;;;;;;;11.35;7.32;;;;;;;;;;5053502;28;20021;-53
2024/01/07 11:49:25;;;;;;;11.13;7.50;;;;;;;;;;5053611;28;20371;-56
2024/01/07 11:51:51;;;;;;;10.82;7.95;;;;;;;;;;5053311;28;20024;-52
2024/01/07 11:54:18;;;;;;;7.55;5.68;;;;;;;;;;5053163;28;20049;-54
2024/01/07 11:56:44;;;;;;;13.27;5.45;;;;;;;;;;5053228;28;20098;-53
2024/01/07 11:59:10;;;;;;;11.13;6.35;;;;;;;;;;5053130;28;20025;-55
2024/01/07 12:01:36;;;;;;;7.28;5.68;;;;;;;;;;5053403;28;20474;-53
2024/01/07 12:04:02;;;;;;;8.07;6.78;;;;;;;;;;5053460;28;20147;-56
2024/01/07 12:06:28;;;;;;;10.35;7.93;;;;;;;;;;5053129;28;20451;-53
2024/01/07 12:08:54;;;;;;;8.77;7.18;;;;;;;;;;5054055;28;20025;-53
2024/01/07 12:11:20;;;;;;;9.70;7.70;;;;;;;;;;5053124;28;20518;-56
2024/01/07 12:13:46;;;;;;;9.45;7.32;;;;;;;;;;5052994;28;20047;-51
2024/01/07 12:16:12;;;;;;;8.25;6.47;;;;;;;;;;5053026;28;20128;-54
2024/01/07 12:18:39;;;;;;;9.63;7.07;;;;;;;;;;5053359;28;20463;-53
2024/01/07 12:21:05;;;;;;;9.60;7.43;;;;;;;;;;5053267;28;20378;-53
2024/01/07 12:23:36;;;;;;;7.55;5.72;;;;;;;;;;5054051;28;20025;-53
2024/01/07 12:26:12;;;;;;;6.40;4.57;;;;;;;;;;5053756;28;20032;-55
2024/01/07 12:28:38;;;;;;;7.80;7.00;;;;;;;;;;5053192;28;20518;-55
2024/01/07 12:31:05;;;;;;;10.33;7.80;;;;;;;;;;5053645;28;20025;-53
2024/01/07 12:33:31;;;;;;;9.15;6.75;;;;;;;;;;5053215;28;20029;-56
2024/01/07 12:35:58;;;;;;;9.23;5.65;;;;;;;;;;5057066;28;20386;-54
2024/01/07 12:38:27;;;;;;;9.55;7.72;;;;;;;;;;5057456;28;20025;-54
2024/01/07 12:40:53;;;;;;;9.30;7.97;;;;;;;;;;5056673;28;20135;-55
2024/01/07 12:43:20;;;;;;;8.98;7.50;;;;;;;;;;5057494;28;20029;-55
2024/01/07 12:45:49;;;;;;;9.47;7.57;;;;;;;;;;5056984;28;20036;-54
2024/01/07 12:48:14;;;;;;;9.40;7.60;;;;;;;;;;5057009;28;20506;-56
2024/01/07 12:50:40;;;;;;;10.35;7.72;;;;;;;;;;5056268;28;20060;-52
2024/01/07 12:53:07;;;;;;;11.27;7.90;;;;;;;;;;5056505;28;20037;-55
2024/01/07 12:55:33;;;;;;;10.03;6.57;;;;;;;;;;5056307;28;20057;-52
2024/01/07 12:57:59;;;;;;;9.83;8.07;;;;;;;;;;5056859;28;20208;-55
2024/01/07 13:00:26;;;;;;;10.77;8.20;;;;;;;;;;5056352;28;20130;-53
2024/01/07 13:02:52;;;;;;;12.00;8.68;;;;;;;;;;5056256;28;20044;-55
2024/01/07 13:05:18;;;;;;;11.73;8.27;;;;;;;;;;5056028;28;20025;-52
2024/01/07 13:07:44;;;;;;;10.20;8.10;;;;;;;;;;5056626;28;20087;-55
2024/01/07 13:10:10;;;;;;;7.63;6.03;;;;;;;;;;5056929;28;20025;-54
2024/01/07 13:12:36;;;;;;;9.93;8.27;;;;;;;;;;5056295;28;20021;-56
2024/01/07 13:15:03;;;;;;;7.97;7.17;;;;;;;;;;5055633;28;20128;-54
2024/01/07 13:17:30;;;;;;;10.93;8.70;;;;;;;;;;5056269;28;20033;-56
2024/01/07 13:19:56;;;;;;;10.73;9.50;;;;;;;;;;5055780;28;20033;-52
2024/01/07 13:22:22;;;;;;;10.50;9.33;;;;;;;;;;5055680;28;20174;-53
2024/01/07 13:24:48;;;;;;;13.00;10.13;;;;;;;;;;5055479;28;20036;-54
2024/01/07 13:27:14;;;;;;;10.23;8.17;;;;;;;;;;5055730;28;20025;-55
2024/01/07 13:29:41;;;;;;;8.73;7.03;;;;;;;;;;5055567;28;20037;-51
2024/01/07 13:32:07;;;;;;;11.17;6.23;;;;;;;;;;5056150;28;20095;-54
2024/01/07 13:34:33;;;;;;;9.18;8.27;;;;;;;;;;5055423;28;20381;-52
2024/01/07 13:36:59;;;;;;;11.73;9.23;;;;;;;;;;5055428;28;20169;-55
2024/01/07 13:39:25;;;;;;;7.30;5.90;;;;;;;;;;5054170;28;20124;-57
2024/01/07 13:41:51;;;;;;;13.37;9.43;;;;;;;;;;5055897;28;20032;-57
2024/01/07 13:44:19;;;;;;;12.73;10.40;;;;;;;;;;5055644;28;20103;-52
2024/01/07 13:46:46;;;;;;;10.50;9.13;;;;;;;;;;5054083;28;20025;-53
2024/01/07 13:49:13;;;;;;;12.13;9.50;;;;;;;;;;5055640;28;20370;-54
2024/01/07 13:51:39;;;;;;;11.23;9.97;;;;;;;;;;5055159;28;20133;-56
2024/01/07 13:54:05;;;;;;;12.00;10.53;;;;;;;;;;5055048;28;20071;-54
2024/01/07 13:56:31;;;;;;;15.40;9.67;;;;;;;;;;5055382;28;20048;-56
2024/01/07 13:58:57;;;;;;;11.07;8.07;;;;;;;;;;5055577;28;20021;-53
2024/01/07 14:01:26;;;;;;;9.27;6.27;;;;;;;;;;5055495;28;20112;-55
2024/01/07 14:03:52;;;;;;;10.73;9.63;;;;;;;;;;5055507;28;20033;-56
2024/01/07 14:06:18;;;;;;;13.23;10.77;;;;;;;;;;5054759;28;20078;-56
2024/01/07 14:08:44;;;;;;;6.77;5.57;;;;;;;;;;5053655;28;20032;-54
2024/01/07 14:11:10;;;;;;;11.70;9.60;;;;;;;;;;5054559;28;20029;-56
2024/01/07 14:13:36;;;;;;;9.03;7.80;;;;;;;;;;5054800;28;20086;-56
2024/01/07 14:16:02;;;;;;;17.00;7.10;;;;;;;;;;5054957;28;20036;-55
2024/01/07 14:18:29;;;;;;;14.73;10.27;;;;;;;;;;5055362;28;20336;-54